Terminal Aerodrome Forecast
Issued by NWS Binghamton, NY

Home | Current Version | Previous Version | Text Only | Print | Product List | Glossary On
Versions: 1 2 3 4 5 6 7 8 9 10 11 12 13 14 15 16 17 18 19 20 21 22
000
FTUS41 KBGM 300529
TAFSYR
TAF
KSYR 300529Z 3006/3106 19009KT P6SM BKN100 BKN200
     FM301300 21012KT P6SM BKN080 BKN200
      TEMPO 3015/3018 -SHRA
     FM301800 23012G19KT 6SM -SHRA BR BKN080 PROB30 3018/3022 4SM
      TSRA BR BKN040CB
     FM310400 34012KT 4SM SHRA BR OVC035=

USA.gov is the U.S. government's official web portal to all federal, state and local government web resources and services.